createdAt,value
2018-12-30T00:03:29.499Z,99.90
2018-12-30T00:13:35.230Z,99.90
2018-12-30T00:23:40.981Z,99.90
2018-12-30T00:33:46.529Z,99.90
2018-12-30T00:43:52.073Z,99.90
2018-12-30T00:53:57.522Z,99.90
2018-12-30T01:04:02.903Z,99.90
2018-12-30T01:14:08.607Z,99.90
2018-12-30T01:24:14.014Z,99.90
2018-12-30T01:34:19.360Z,99.90
2018-12-30T01:44:24.770Z,99.90
2018-12-30T01:54:30.081Z,99.90
2018-12-30T02:04:35.451Z,99.90
2018-12-30T02:14:40.809Z,99.90
2018-12-30T02:24:46.159Z,99.90
2018-12-30T02:34:51.496Z,99.90
2018-12-30T02:44:56.855Z,99.90
2018-12-30T02:55:02.287Z,99.90
2018-12-30T03:05:07.840Z,99.90
2018-12-30T03:15:13.857Z,99.90
2018-12-30T03:25:19.471Z,99.90
2018-12-30T03:35:24.764Z,99.90
2018-12-30T03:45:30.095Z,99.90
2018-12-30T03:55:35.415Z,99.90
2018-12-30T04:05:40.837Z,99.90
2018-12-30T04:15:46.145Z,99.90
2018-12-30T04:25:51.458Z,99.90
2018-12-30T04:35:56.787Z,99.90
2018-12-30T04:46:02.135Z,99.90
2018-12-30T04:56:07.453Z,99.90
2018-12-30T05:06:12.799Z,99.90
2018-12-30T05:16:18.261Z,99.90
2018-12-30T05:26:23.682Z,99.90
2018-12-30T05:36:28.948Z,99.90
2018-12-30T05:46:34.299Z,99.90
2018-12-30T05:56:39.702Z,99.90
2018-12-30T06:06:45.170Z,99.90
2018-12-30T06:16:50.481Z,99.90
2018-12-30T06:26:58.964Z,99.90
2018-12-30T06:37:04.232Z,99.90
2018-12-30T06:47:09.616Z,99.90
2018-12-30T06:57:14.928Z,99.90
2018-12-30T07:07:20.190Z,99.90
2018-12-30T07:17:25.596Z,99.90
2018-12-30T07:27:30.974Z,99.90
2018-12-30T07:37:36.345Z,99.90
2018-12-30T07:47:41.562Z,99.90
2018-12-30T07:57:46.868Z,99.90
2018-12-30T08:07:52.141Z,99.90
2018-12-30T08:17:57.488Z,99.90
2018-12-30T08:28:02.798Z,99.90
2018-12-30T08:38:08.100Z,99.90
2018-12-30T08:48:13.499Z,99.90
2018-12-30T08:58:18.857Z,99.90
2018-12-30T09:08:24.183Z,99.90
2018-12-30T09:18:30.501Z,99.70
2018-12-30T09:28:35.943Z,99.30
2018-12-30T09:38:42.375Z,98.60
2018-12-30T09:48:47.939Z,98.70
2018-12-30T09:58:53.464Z,98.60
2018-12-30T10:08:59.048Z,98.40
2018-12-30T10:19:08.041Z,97.90
2018-12-30T10:29:13.553Z,97.80
2018-12-30T10:39:18.863Z,97.60
2018-12-30T10:49:24.257Z,97.90
2018-12-30T10:59:29.637Z,98.00
2018-12-30T11:09:34.879Z,98.40
2018-12-30T11:19:40.306Z,98.70
2018-12-30T11:29:45.831Z,99.30
2018-12-30T11:39:51.308Z,99.50
2018-12-30T11:49:56.824Z,99.90
2018-12-30T12:00:02.242Z,99.90
2018-12-30T12:10:08.050Z,99.90
2018-12-30T12:20:13.403Z,99.90
2018-12-30T12:30:18.831Z,99.90
2018-12-30T12:40:24.390Z,99.90
2018-12-30T12:50:29.693Z,99.90
2018-12-30T13:00:35.031Z,99.90
2018-12-30T13:10:40.469Z,99.90
2018-12-30T13:20:45.760Z,99.90
2018-12-30T13:30:51.146Z,99.90
2018-12-30T13:40:56.442Z,99.90
2018-12-30T13:51:01.899Z,99.90
2018-12-30T14:01:07.455Z,99.90
2018-12-30T14:11:12.813Z,99.90
2018-12-30T14:21:18.211Z,99.90
2018-12-30T14:31:23.505Z,99.90
2018-12-30T14:41:28.939Z,99.90
2018-12-30T14:51:34.297Z,99.90
2018-12-30T15:01:39.950Z,99.90
2018-12-30T15:11:45.386Z,99.90
2018-12-30T15:21:50.790Z,99.90
2018-12-30T15:31:56.294Z,99.90
2018-12-30T15:42:01.775Z,99.90
2018-12-30T15:52:07.300Z,99.90
2018-12-30T16:02:12.676Z,99.90
2018-12-30T16:12:18.073Z,99.90
2018-12-30T16:22:23.842Z,99.90
2018-12-30T16:32:29.238Z,99.90
2018-12-30T16:42:34.606Z,99.90
2018-12-30T16:52:40.096Z,99.90
2018-12-30T17:02:45.500Z,99.90
2018-12-30T17:12:51.015Z,99.90
2018-12-30T17:22:56.383Z,99.90
2018-12-30T17:33:01.745Z,99.90
2018-12-30T17:43:07.130Z,99.90
2018-12-30T17:53:12.518Z,99.90
2018-12-30T18:03:17.920Z,99.90
2018-12-30T18:13:23.356Z,99.90
2018-12-30T18:23:28.793Z,99.90
2018-12-30T18:33:34.158Z,99.90
2018-12-30T18:43:39.586Z,99.90
2018-12-30T18:53:44.955Z,99.90
2018-12-30T19:03:50.457Z,99.90
2018-12-30T19:13:55.858Z,99.90
2018-12-30T19:24:01.183Z,99.90
2018-12-30T19:34:06.671Z,99.90
2018-12-30T19:44:13.041Z,99.90
2018-12-30T19:54:18.592Z,99.90
2018-12-30T20:04:24.133Z,99.90
2018-12-30T20:14:29.509Z,99.90
2018-12-30T20:24:34.893Z,99.90
2018-12-30T20:34:40.495Z,99.90
2018-12-30T20:44:45.915Z,99.90
2018-12-30T20:54:51.332Z,99.90
2018-12-30T21:04:56.986Z,99.90
2018-12-30T21:15:02.341Z,99.90
2018-12-30T21:25:07.677Z,99.90
2018-12-30T21:35:12.996Z,99.90
2018-12-30T21:45:18.427Z,99.90
2018-12-30T21:55:23.748Z,99.90
2018-12-30T22:05:29.093Z,99.90
2018-12-30T22:15:34.678Z,99.90
2018-12-30T22:25:40.051Z,99.90
2018-12-30T22:35:45.442Z,99.90
2018-12-30T22:45:50.799Z,99.90
2018-12-30T22:55:56.168Z,99.90
2018-12-30T23:06:01.545Z,99.90
2018-12-30T23:16:07.002Z,99.90
2018-12-30T23:26:12.305Z,99.90
2018-12-30T23:36:17.682Z,99.90
2018-12-30T23:46:23.010Z,99.90
2018-12-30T23:56:28.399Z,99.90
